Terminal Aerodrome Forecast
Issued by NWS Sterling, VA

Current Version | Previous Version | Graphics & Text | Print | Product List | Glossary On
Versions: 1 2 3 4 5 6 7 8 9 10 11 12 13 14 15 16 17 18 19 20 21
505
FTUS41 KLWX 241340 AAA
TAFIAD
TAF AMD
KIAD 241340Z 2414/2518 18010KT P6SM -RA OVC090
     FM241600 19012G20KT P6SM BKN070
     FM250000 20008KT P6SM BKN250
     FM250700 21004KT P6SM BKN250=

USA.gov is the U.S. government's official web portal to all federal, state and local government web resources and services.